METAR stanice u blizini

 

LYBE - Beograd / Surčin, Srbija
Ažurirano: 17/01/2019 03:30
Vedro
Vedro
 Pravac vetra varies
Vetar: varies 2 km/h
Temperatura: 3°C
Tačka rose: -4°C
Vlažnost: 60%
Pritisak: 1017 hPa
Pregled: Vedro
Vidljivost: greater than 10 km
2019/01/17 02:30 LYBE 170230Z VRB01KT CAVOK 03/M04 Q1017 NOSIG
LYBT - Beograd / Batajnica, Srbija
Ažurirano: 17/01/2019 03:30
Partly Cloudy
Partly Cloudy
 Pravac vetra I
Vetar: I 2 km/h
Temperatura: -3°C
Tačka rose: -5°C
Vlažnost: 86%
Pritisak: 1017 hPa
Oblaci: Partly Cloudy
Vidljivost: 8 km
2019/01/17 02:30 LYBT 170230Z 10001KT 8000 NSC M03/M05 Q1017 NOSIG
LYVR - Vršac, Srbija
Ažurirano: 17/01/2019 03:30
Vedro
Vedro
 Pravac vetra J
Vetar: J 24 km/h, Maks.: 44 km/h
Temperatura: 5°C
Osećaj hladnoće: 1°C
Tačka rose: -3°C
Vlažnost: 57%
Pritisak: 1017 hPa
Pregled: Vedro
Vidljivost: greater than 10 km
2019/01/17 02:30 LYVR 170230Z 17013G24KT CAVOK 05/M03 Q1017 NOSIG
 
LYKV - Lađevci, Srbija
Ažurirano: 17/01/2019 03:30
Vedro
Vedro
 Pravac vetra varies
Vetar: varies 2 km/h
Temperatura: -10°C
Tačka rose: -11°C
Vlažnost: 92%
Pritisak: 1019 hPa
Pregled: Vedro
Vidljivost: greater than 10 km
2019/01/17 02:30 LYKV 170230Z VRB01KT CAVOK M10/M11 Q1019 NOSIG
LYNI - Niš, Srbija
Ažurirano: 17/01/2019 03:30
Mist, Delimično oblačno
Mist, Delimično oblačno
 Pravac vetra IJI
Vetar: IJI 7 km/h
Temperatura: -6°C
Osećaj hladnoće: -10°C
Tačka rose: -6°C
Vlažnost: 100%
Pritisak: 1020 hPa
Pregled: Mist
Oblaci: Partly Cloudy
Vidljivost: 4 km
2019/01/17 02:30 LYNI 170230Z 12004KT 4000 BR NSC M06/M06 Q1020 R11/2///95 NOSIG
BKPR - Priština, Srbija
Ažurirano: 17/01/2019 03:30
Freezing fog, Delimično oblačno
Freezing fog, Delimično oblačno
 Pravac vetra calm
Vetar: Tišina
Temperatura: -11°C
Tačka rose: -13°C
Vlažnost: 85%
Pritisak: 1020 hPa
Pregled: Freezing Fog
Oblaci: Partly Cloudy
Vidljivost: 1 km
Cloud details: Partly Cloudy 122 m
2019/01/17 02:30 BKPR 170230Z 00000KT 0800 R17/P1500 FZFG SCT004 M11/M13 Q1020 BECMG 0500 RMK 17010095
 
LHPP - Pecs / Pogany, Hungary
Ažurirano: 16/01/2019 17:45
NOT Current
Vedro
Vedro
 Pravac vetra JJZ
Vetar: JJZ 9 km/h
Temperatura: 5°C
Osećaj hladnoće: 3°C
Tačka rose: 0°C
Vlažnost: 70%
Pritisak: 1015 hPa
Pregled: Vedro
Vidljivost: greater than 10 km
2019/01/16 16:45 LHPP 161645Z 21005KT CAVOK 05/M00 Q1015
LHUD - Szeged, Hungary
Ažurirano: 17/01/2019 02:45
Vedro
Vedro
 Pravac vetra J
Vetar: J 20 km/h
Temperatura: 2°C
Osećaj hladnoće: -3°C
Tačka rose: -1°C
Vlažnost: 81%
Pritisak: 1014 hPa
Pregled: Vedro
Vidljivost: greater than 10 km
2019/01/17 01:45 LHUD 170145Z 19011KT CAVOK 02/M01 Q1014
LRTR - Timisoara, Romania
Ažurirano: 17/01/2019 03:30
Vedro
Vedro
 Pravac vetra IJI
Vetar: IJI 13 km/h
Temperatura: -2°C
Osećaj hladnoće: -7°C
Tačka rose: -2°C
Vlažnost: 100%
Pritisak: 1016 hPa
Pregled: Vedro
Vidljivost: greater than 10 km
2019/01/17 02:30 LRTR 170230Z 11007KT CAVOK M02/M02 Q1016 R11/190095
 
LRCV - Craiova, Romania
Ažurirano: 17/01/2019 03:30
Vedro
Vedro
 Pravac vetra Z
Vetar: Z 11 km/h
Temperatura: 2°C
Osećaj hladnoće: -1°C
Tačka rose: -2°C
Vlažnost: 75%
Pritisak: 1016 hPa
Pregled: Vedro
Vidljivost: greater than 10 km
2019/01/17 02:30 LRCV 170230Z 26006KT CAVOK 02/M02 Q1016
LBSF - Sofia, Bulgaria
Ažurirano: 17/01/2019 03:30
Partly Cloudy
Partly Cloudy
 Pravac vetra I
Vetar: I 11 km/h
Temperatura: -6°C
Osećaj hladnoće: -11°C
Tačka rose: -8°C
Vlažnost: 86%
Pritisak: 1019 hPa
Oblaci: Partly Cloudy
Vidljivost: 8 km
2019/01/17 02:30 LBSF 170230Z 09006KT 8000 NSC M06/M08 Q1019 NOSIG
LWSK - Skoplje, Makedonija
Ažurirano: 17/01/2019 03:30
Vedro
Vedro
 Pravac vetra calm
Vetar: Tišina
Temperatura: -10°C
Tačka rose: -11°C
Vlažnost: 92%
Pritisak: 1022 hPa
Pregled: Vedro
Vidljivost: greater than 10 km
2019/01/17 02:30 LWSK 170230Z 00000KT CAVOK M10/M11 Q1022 NOSIG
 
LYPG - Podgorica, Crna Gora
Ažurirano: 17/01/2019 03:30
Few Clouds
Few Clouds
 Pravac vetra varies
Vetar: varies 2 km/h
Temperatura: -1°C
Tačka rose: -3°C
Vlažnost: 86%
Pritisak: 1023 hPa
Oblaci: Few Clouds
Vidljivost: 7 km
Cloud details: Few Clouds 2438 m
2019/01/17 02:30 LYPG 170230Z VRB01KT 7000 FEW080 M01/M03 Q1023 NOSIG
LQSA - Sarajevo, Bosna i Hercegovina
Ažurirano: 17/01/2019 03:00
Freezing fog, Delimično oblačno
Freezing fog, Delimično oblačno
 Pravac vetra varies
Vetar: varies 2 km/h
Temperatura: -9°C
Tačka rose: -9°C
Vlažnost: 100%
Pritisak: 1019 hPa
Pregled: Freezing Fog
Oblaci: Partly Cloudy
Vidljivost: 1 km
2019/01/17 02:00 LQSA 170200Z VRB01KT 0800 R12/0800N FZFG NSC M09/M09 Q1019
LDOS - Osijek, Hrvatksa
Ažurirano: 17/01/2019 03:30
Vedro
Vedro
 Pravac vetra J
Vetar: J 13 km/h
Temperatura: -1°C
Osećaj hladnoće: -6°C
Tačka rose: -3°C
Vlažnost: 86%
Pritisak: 1015 hPa
Pregled: Vedro
Vidljivost: greater than 10 km
2019/01/17 02:30 LDOS 170230Z 19007KT CAVOK M01/M03 Q1015